Lingle, WY (82223)

1:27 PM MDT on July 29, 2016 (GMT -0600)
Torrington Main St Mkt | | Change Station
Active Advisory: Severe Thunderstorm Watch

Elev 4094 ft 42.06 °N, 104.18 °W | Updated 30 minutes ago

Clear
Clear
88.6 °F
Feels Like 88 °F
N
3.0
Wind Variable Wind from SSW
Gusts 8.0 mph

Today
High -- | Low -- °F
--% Chance of Precip.
Yesterday
High -- | Low -- °F
Precip. -- in
Pressure 29.95 in
Visibility 10.0 miles
Clouds Clear
Heat Index 88 °F
Dew Point 61 °F
Humidity 39%
Rainfall in
Snow Depth Not available.
5:48 AM 8:18 PM
Waning Crescent, 19% visible
METAR KTOR 291853Z AUTO 12012G17KT 10SM CLR 29/13 A3009 RMK AO2 SLP140 T02890128 TSNO
Pressure 29.95 in
Visibility 10.0 miles
Clouds Clear
Heat Index 88 °F
Dew Point 61 °F
Humidity 39%
Rainfall in
Snow Depth Not available.
5:48 AM 8:18 PM
Waning Crescent, 19% visible
METAR KTOR 291853Z AUTO 12012G17KT 10SM CLR 29/13 A3009 RMK AO2 SLP140 T02890128 TSNO

10-Day Weather Forecast

Almanac

Astronomy

Jul. 29, 2016 Rise Set
Actual Time
Civil Twilight
Nautical Twilight
Astronomical Twilight
Moon
Length of Visible Light
Length of Day
Tomorrow will be .
, % of the Moon is Illuminated

Today's Extremes

State Highs State Lows

Community

WunderPhotos

Upload Photos

1,928,399 photos uploaded!

WunderBlog® & News

Nearby

Air Quality

  Air Quality AQ Index Pollutant
Not available.

Snow Depth

Station Depth Elevation

Earthquake Activity

City Distance Mag. Time & Date
Minimum magnitude displayed is 2.5.

Coastal Water Temperatures

Place Temperature

Stations

Nearby Weather Stations

Station Location Temp. Windchill Dew Point Humidity Wind Precip. Elev Updated Type
                   

Watches & Warnings

Severe Thunderstorm Watch
Issued: 1:24 PM MDT Jul. 29, 2016 – National Weather Service

Severe Thunderstorm Watch 422 remains in effect until 1000 PM MDT

WY
. Wyoming counties included are

Albany Goshen Laramie
Platte